Terminal Aerodrome Forecast
Issued by NWS

Home | Current Version | Previous Version | Text Only | Print | Product List | Glossary On
Versions: 1 2 3 4 5 6 7 8 9 10 11 12 13 14
000
FTUS43 KOAX 271749
TAFBFF
TAF
KBFF 271749Z 2718/2818 02012KT P6SM -SHRA VCTS BKN035 OVC050CB
     FM272000 06012KT P6SM -TSRA BKN050CB
     FM280100 04009KT P6SM BKN100
     FM280400 VRB03KT P6SM SCT200=

USA.gov is the U.S. government's official web portal to all federal, state and local government web resources and services.